Time;durP1;ratioP1;P1;durP2;ratioP2;P2;SDS_P1;SDS_P2;PMS_P1;PMS_P2;Temp;Humidity;BMP_temperature;BMP_pressure;BME280_temperature;BME280_humidity;BME280_pressure;Samples;Min_cycle;Max_cycle;Signal;HPM_P1;HPM_P2
2022/04/01 00:00:57;;;;;;;;;;;358.50;2329.60;;;;;;4915988;29;19908;-76
2022/04/01 00:03:23;;;;;;;;;;;358.40;2329.60;;;;;;4917262;29;20272;-76
2022/04/01 00:05:48;;;;;;;;;;;333.70;2329.60;;;;;;4900329;29;19958;-76
2022/04/01 00:08:14;;;;;;;;;;;358.40;2329.60;;;;;;4900186;29;19907;-76
2022/04/01 00:10:40;;;;;;;;;;;333.70;2329.60;;;;;;4917782;29;19954;-76
2022/04/01 00:13:06;;;;;;;;;;;333.70;2329.60;;;;;;4920971;29;19907;-76
2022/04/01 00:15:32;;;;;;;;;;;358.50;2329.60;;;;;;4919321;29;19915;-76
2022/04/01 00:17:57;;;;;;;;;;;333.70;2329.60;;;;;;4919168;29;19966;-76
2022/04/01 00:20:23;;;;;;;;;;;333.70;2329.60;;;;;;4920837;29;19911;-76
2022/04/01 00:22:49;;;;;;;;;;;358.40;2329.60;;;;;;4920702;29;19911;-75
2022/04/01 00:25:15;;;;;;;;;;;358.50;2329.60;;;;;;4920577;29;19907;-76
2022/04/01 00:27:40;;;;;;;;;;;358.50;2329.60;;;;;;4903604;29;19955;-76
2022/04/01 00:30:07;;;;;;;;;;;358.60;2329.60;;;;;;4919328;29;20371;-76
2022/04/01 00:32:32;;;;;;;;;;;358.60;2329.60;;;;;;4920389;29;20430;-76
2022/04/01 00:34:58;;;;;;;;;;;358.60;2329.60;;;;;;4920368;29;19915;-76
2022/04/01 00:37:24;;;;;;;;;;;358.50;2329.60;;;;;;4919103;29;19907;-75
2022/04/01 00:39:50;;;;;;;;;;;358.70;2329.60;;;;;;4920028;29;19907;-76
2022/04/01 00:42:15;;;;;;;;;;;358.60;2329.60;;;;;;4903324;29;19954;-75
2022/04/01 00:44:41;;;;;;;;;;;358.70;2329.60;;;;;;4918978;29;19906;-76
2022/04/01 00:47:09;;;;;;;;;;;358.60;2329.60;;;;;;4920232;29;19914;-78
2022/04/01 00:49:35;;;;;;;;;;;358.60;2329.60;;;;;;4920043;29;20368;-75
2022/04/01 00:52:02;;;;;;;;;;;358.60;2329.60;;;;;;4918852;29;19907;-76
2022/04/01 00:54:28;;;;;;;;;;;358.60;2329.60;;;;;;4918650;29;19994;-76
2022/04/01 00:56:54;;;;;;;;;;;358.60;2329.60;;;;;;4918811;29;19995;-75
2022/04/01 00:59:20;;;;;;;;;;;358.60;2329.60;;;;;;4919954;29;19953;-76
2022/04/01 01:01:49;;;;;;;;;;;358.60;2329.60;;;;;;4918625;29;19955;-76
2022/04/01 01:04:16;;;;;;;;;;;358.60;2329.60;;;;;;4918546;29;20375;-76
2022/04/01 01:06:43;;;;;;;;;;;358.60;2329.60;;;;;;4918515;29;19907;-76
2022/04/01 01:09:10;;;;;;;;;;;358.60;2329.60;;;;;;4919757;29;19929;-76
2022/04/01 01:11:36;;;;;;;;;;;358.50;2329.60;;;;;;4919753;29;19906;-76
2022/04/01 01:14:05;;;;;;;;;;;358.50;2329.60;;;;;;4918360;29;20001;-75
2022/04/01 01:16:31;;;;;;;;;;;358.50;2329.60;;;;;;4919451;29;19922;-75
2022/04/01 01:19:04;;;;;;;;;;;358.60;2329.60;;;;;;4918171;29;19919;-76
2022/04/01 01:21:31;;;;;;;;;;;358.60;2329.60;;;;;;4935352;29;19907;-76
2022/04/01 01:24:02;;;;;;;;;;;358.60;2329.60;;;;;;4921471;29;19914;-76
2022/04/01 01:26:28;;;;;;;;;;;358.60;2329.60;;;;;;4938485;29;19910;-77
2022/04/01 01:28:55;;;;;;;;;;;358.50;2329.60;;;;;;4938448;29;20005;-76
2022/04/01 01:31:21;;;;;;;;;;;358.50;2329.60;;;;;;4938583;29;20344;-75
2022/04/01 01:33:48;;;;;;;;;;;358.50;2329.60;;;;;;4938319;29;19907;-76
2022/04/01 01:36:13;;;;;;;;;;;358.50;2329.60;;;;;;4936876;29;19919;-76
2022/04/01 01:38:39;;;;;;;;;;;358.50;2329.60;;;;;;4936905;29;20295;-76
2022/04/01 01:41:05;;;;;;;;;;;358.50;2329.60;;;;;;4938421;29;19949;-76
2022/04/01 01:43:30;;;;;;;;;;;358.50;2329.60;;;;;;4938167;29;19907;-76
2022/04/01 01:45:56;;;;;;;;;;;358.40;2329.60;;;;;;4921109;29;19981;-76
2022/04/01 01:48:22;;;;;;;;;;;358.40;2329.60;;;;;;4937762;29;19907;-76
2022/04/01 01:56:17;;;;;;;;;;;333.70;2329.60;;;;;;4938042;29;19962;-76
2022/04/01 01:58:43;;;;;;;;;;;333.70;2329.60;;;;;;4920805;29;19933;-76
2022/04/01 02:01:09;;;;;;;;;;;333.70;2329.60;;;;;;4937864;29;19906;-76
2022/04/01 02:03:35;;;;;;;;;;;333.70;2329.60;;;;;;4937784;29;19906;-76
2022/04/01 02:06:03;;;;;;;;;;;333.70;2329.60;;;;;;4937737;29;20324;-76
2022/04/01 02:08:32;;;;;;;;;;;333.70;2329.60;;;;;;4920525;29;19907;-76
2022/04/01 02:10:58;;;;;;;;;;;333.70;2329.60;;;;;;4920852;29;20395;-76
2022/04/01 02:13:24;;;;;;;;;;;333.70;2329.60;;;;;;4936337;29;19911;-75
2022/04/01 02:15:50;;;;;;;;;;;333.70;2329.60;;;;;;4936279;29;19919;-76
2022/04/01 02:18:16;;;;;;;;;;;333.70;2329.60;;;;;;4937265;29;20371;-76
2022/04/01 02:20:42;;;;;;;;;;;333.70;2329.60;;;;;;4920381;29;19907;-76
2022/04/01 02:23:09;;;;;;;;;;;333.60;2329.60;;;;;;4920337;29;19922;-76
2022/04/01 02:25:36;;;;;;;;;;;333.70;2329.60;;;;;;4936116;29;19933;-76
2022/04/01 02:28:02;;;;;;;;;;;333.60;2329.60;;;;;;4920679;29;19918;-76
2022/04/01 02:30:28;;;;;;;;;;;333.60;2329.60;;;;;;4937243;29;20275;-76
2022/04/01 02:32:54;;;;;;;;;;;333.50;2329.60;;;;;;4936570;29;19994;-75
2022/04/01 02:35:20;;;;;;;;;;;333.50;2329.60;;;;;;4935921;29;20009;-76
2022/04/01 02:37:47;;;;;;;;;;;333.70;2329.60;;;;;;4937230;29;20001;-76
2022/04/01 02:40:13;;;;;;;;;;;333.50;2329.60;;;;;;4920055;29;20005;-76
2022/04/01 02:42:39;;;;;;;;;;;333.50;2329.60;;;;;;4920073;29;19906;-75
2022/04/01 02:45:05;;;;;;;;;;;333.50;2329.60;;;;;;4935773;29;19907;-76
2022/04/01 02:47:31;;;;;;;;;;;333.50;2329.60;;;;;;4935780;29;19913;-76
2022/04/01 02:49:57;;;;;;;;;;;333.40;2329.60;;;;;;4936931;29;19907;-76
2022/04/01 02:52:23;;;;;;;;;;;333.40;2329.60;;;;;;4936915;29;20378;-76
2022/04/01 02:54:48;;;;;;;;;;;333.40;2329.60;;;;;;4936584;29;19914;-92
2022/04/01 02:57:14;;;;;;;;;;;333.40;2329.60;;;;;;4920092;29;19913;-77
2022/04/01 02:59:40;;;;;;;;;;;333.40;2329.60;;;;;;4936844;29;19907;-76
2022/04/01 03:02:05;;;;;;;;;;;333.40;2329.60;;;;;;4935635;29;19914;-76
2022/04/01 03:04:31;;;;;;;;;;;333.40;2329.60;;;;;;4919775;29;20359;-76
2022/04/01 03:06:57;;;;;;;;;;;333.40;2329.60;;;;;;4935595;29;20013;-75
2022/04/01 03:09:23;;;;;;;;;;;333.30;2329.60;;;;;;4936959;29;19911;-76
2022/04/01 03:11:49;;;;;;;;;;;333.30;2329.60;;;;;;4919673;29;19907;-76
2022/04/01 03:14:15;;;;;;;;;;;333.30;2329.60;;;;;;4936520;29;20375;-76
2022/04/01 03:16:41;;;;;;;;;;;333.30;2329.60;;;;;;4919556;29;19915;-76
2022/04/01 03:19:08;;;;;;;;;;;333.20;2329.60;;;;;;4936270;29;19918;-76
2022/04/01 03:21:35;;;;;;;;;;;333.20;2329.60;;;;;;4936618;29;19931;-75
2022/04/01 03:24:01;;;;;;;;;;;333.30;2329.60;;;;;;4935423;29;19907;-76
2022/04/01 03:26:27;;;;;;;;;;;333.30;2329.60;;;;;;4936974;29;19914;-76
2022/04/01 03:28:53;;;;;;;;;;;333.20;2329.60;;;;;;4919462;29;19911;-76
2022/04/01 03:31:18;;;;;;;;;;;333.30;2329.60;;;;;;4936599;29;19910;-76
2022/04/01 03:33:44;;;;;;;;;;;333.20;2329.60;;;;;;4919513;29;20261;-76
2022/04/01 03:36:10;;;;;;;;;;;333.20;2329.60;;;;;;4935120;29;19918;-76
2022/04/01 03:38:36;;;;;;;;;;;333.20;2329.60;;;;;;4935224;29;19907;-76
2022/04/01 03:41:05;;;;;;;;;;;333.20;2329.60;;;;;;4936454;29;19913;-75
2022/04/01 03:43:31;;;;;;;;;;;333.10;2329.60;;;;;;4936514;29;20062;-76
2022/04/01 03:45:58;;;;;;;;;;;333.10;2329.60;;;;;;4939058;29;20376;-76
2022/04/01 03:48:42;;;;;;;;;;;333.10;2329.60;;;;;;4939076;29;20009;-76
2022/04/01 03:51:08;;;;;;;;;;;333.10;2329.60;;;;;;4938902;29;19907;-75
2022/04/01 03:53:34;;;;;;;;;;;333.10;2329.60;;;;;;4938966;29;19945;-76
2022/04/01 03:56:01;;;;;;;;;;;333.10;2329.60;;;;;;4940024;29;19965;-75
2022/04/01 03:58:28;;;;;;;;;;;333.10;2329.60;;;;;;4940181;29;19907;-75
2022/04/01 04:00:55;;;;;;;;;;;333.20;2329.60;;;;;;4938457;29;19907;-75
2022/04/01 04:03:21;;;;;;;;;;;333.20;2329.60;;;;;;4939998;29;20336;-76
2022/04/01 04:05:47;;;;;;;;;;;333.20;2329.60;;;;;;4922776;29;19914;-75
2022/04/01 04:08:17;;;;;;;;;;;333.20;2329.60;;;;;;4938880;29;19907;-76
2022/04/01 04:10:45;;;;;;;;;;;333.20;2329.60;;;;;;4939839;29;19907;-76
2022/04/01 04:13:12;;;;;;;;;;;333.20;2329.60;;;;;;4939776;29;19907;-76
2022/04/01 04:15:47;;;;;;;;;;;333.10;2329.60;;;;;;4939668;29;20462;-76
2022/04/01 04:18:15;;;;;;;;;;;333.10;2329.60;;;;;;4939457;29;20352;-76
2022/04/01 04:20:46;;;;;;;;;;;333.10;2329.60;;;;;;4938533;29;19926;-76
2022/04/01 04:23:29;;;;;;;;;;;333.10;2329.60;;;;;;4939612;29;19911;-76
2022/04/01 04:26:04;;;;;;;;;;;333.00;2329.60;;;;;;4938331;29;20348;-75
2022/04/01 04:28:37;;;;;;;;;;;333.00;2329.60;;;;;;4939572;29;19954;-76
2022/04/01 04:31:04;;;;;;;;;;;333.00;2329.60;;;;;;4938266;29;20491;-75
2022/04/01 04:33:33;;;;;;;;;;;333.00;2329.60;;;;;;4939565;29;19914;-75
2022/04/01 04:36:04;;;;;;;;;;;333.00;2329.60;;;;;;4938337;29;19922;-93
2022/04/01 04:38:39;;;;;;;;;;;333.00;2329.60;;;;;;4938158;29;19906;-76
2022/04/01 04:41:08;;;;;;;;;;;333.00;2329.60;;;;;;4939707;29;19914;-76
2022/04/01 04:43:46;;;;;;;;;;;333.00;2329.60;;;;;;4939412;29;19914;-76
2022/04/01 04:46:13;;;;;;;;;;;333.00;2329.60;;;;;;4938015;29;20001;-76
2022/04/01 04:48:40;;;;;;;;;;;333.10;2329.60;;;;;;4939150;29;20352;-76
2022/04/01 04:51:06;;;;;;;;;;;333.10;2329.60;;;;;;4938816;29;20005;-76
2022/04/01 04:53:34;;;;;;;;;;;333.20;2329.60;;;;;;4937728;29;20391;-76
2022/04/01 04:56:03;;;;;;;;;;;333.30;2329.60;;;;;;4938450;29;19915;-76
2022/04/01 04:58:34;;;;;;;;;;;333.30;2329.60;;;;;;4921586;29;20307;-76
2022/04/01 05:01:07;;;;;;;;;;;333.40;2329.60;;;;;;4938087;29;19914;-75
2022/04/01 05:03:46;;;;;;;;;;;333.50;2329.60;;;;;;4939005;29;19911;-76
2022/04/01 05:06:16;;;;;;;;;;;333.60;2329.60;;;;;;4938534;29;19956;-76
2022/04/01 05:08:46;;;;;;;;;;;358.40;2329.60;;;;;;4936006;29;19907;-76
2022/04/01 05:11:28;;;;;;;;;;;358.40;2329.60;;;;;;4936984;29;20005;-76
2022/04/01 05:14:05;;;;;;;;;;;358.40;2329.60;;;;;;4936327;29;19911;-76
2022/04/01 05:16:45;;;;;;;;;;;358.40;2329.60;;;;;;4936745;29;19914;-76
2022/04/01 05:19:12;;;;;;;;;;;358.50;2329.60;;;;;;4937164;29;19940;-76
2022/04/01 05:21:51;;;;;;;;;;;358.40;2329.60;;;;;;4939142;29;19997;-84
2022/04/01 05:24:23;;;;;;;;;;;333.70;2329.60;;;;;;4921433;29;19930;-76
2022/04/01 05:26:53;;;;;;;;;;;333.70;2329.60;;;;;;4935722;29;20415;-76
2022/04/01 05:29:31;;;;;;;;;;;333.70;2329.60;;;;;;4937915;29;19946;-76
2022/04/01 05:32:05;;;;;;;;;;;333.70;2329.60;;;;;;4940383;29;20418;-76
2022/04/01 05:34:34;;;;;;;;;;;333.60;2329.60;;;;;;4948199;29;19938;-77
2022/04/01 05:37:00;;;;;;;;;;;333.50;2329.60;;;;;;4944942;29;19918;-77
2022/04/01 05:39:28;;;;;;;;;;;333.50;2329.60;;;;;;4942368;29;19911;-76
2022/04/01 05:41:54;;;;;;;;;;;333.60;2329.60;;;;;;4941828;29;19988;-77
2022/04/01 05:44:20;;;;;;;;;;;333.60;2329.60;;;;;;4939495;29;19917;-93
2022/04/01 05:46:46;;;;;;;;;;;333.70;2329.60;;;;;;4933852;29;19906;-90
2022/04/01 05:49:13;;;;;;;;;;;333.70;2329.60;;;;;;4937429;29;20288;-75
2022/04/01 05:51:38;;;;;;;;;;;358.40;2329.60;;;;;;4938071;29;19914;-89
2022/04/01 05:54:05;;;;;;;;;;;358.40;2329.60;;;;;;4921180;29;19906;-76
2022/04/01 05:56:35;;;;;;;;;;;358.40;2329.60;;;;;;4921094;29;20269;-76
2022/04/01 05:59:00;;;;;;;;;;;358.40;2329.60;;;;;;4921085;29;20017;-90
2022/04/01 06:01:45;;;;;;;;;;;358.40;2329.60;;;;;;4934875;29;19955;-82
2022/04/01 06:04:28;;;;;;;;;;;358.40;2329.60;;;;;;4936368;29;20351;-76
2022/04/01 06:06:58;;;;;;;;;;;358.50;2329.60;;;;;;4935046;29;20006;-76
2022/04/01 06:09:44;;;;;;;;;;;358.50;2329.60;;;;;;4935922;29;19910;-76
2022/04/01 06:12:18;;;;;;;;;;;358.60;2329.60;;;;;;4918959;29;19953;-76
2022/04/01 06:15:02;;;;;;;;;;;358.70;2329.60;;;;;;4920477;29;19949;-76
2022/04/01 06:17:36;;;;;;;;;;;358.80;2329.60;;;;;;4937534;29;20364;-76
2022/04/01 06:20:03;;;;;;;;;;;359.10;2329.60;;;;;;4914144;29;20017;-76
2022/04/01 06:22:31;;;;;;;;;;;359.20;2329.60;;;;;;4913987;29;19930;-76
2022/04/01 06:25:18;;;;;;;;;;;384.00;2329.60;;;;;;4899838;29;19911;-76
2022/04/01 06:27:45;;;;;;;;;;;384.20;2329.60;;;;;;4899990;29;19943;-80
2022/04/01 06:30:18;;;;;;;;;;;384.40;2329.60;;;;;;4898220;29;19912;-90
2022/04/01 06:32:50;;;;;;;;;;;384.60;2329.60;;;;;;4897236;29;19907;-88
2022/04/01 06:35:18;;;;;;;;;;;384.70;2329.60;;;;;;4898534;29;20046;-76
2022/04/01 06:37:53;;;;;;;;;;;384.70;2329.60;;;;;;4898426;29;20280;-76
2022/04/01 06:40:21;;;;;;;;;;;384.90;2329.60;;;;;;4898347;29;20429;-89
2022/04/01 06:42:50;;;;;;;;;;;409.70;2355.20;;;;;;4899202;29;19915;-76
2022/04/01 06:45:16;;;;;;;;;;;409.80;2355.20;;;;;;4899399;29;19907;-92
2022/04/01 06:47:41;;;;;;;;;;;410.00;2355.20;;;;;;4899973;29;19907;-94
2022/04/01 06:50:08;;;;;;;;;;;410.10;2355.20;;;;;;4899430;29;19930;-92
2022/04/01 06:52:33;;;;;;;;;;;410.40;2355.20;;;;;;4899366;29;20013;-81
2022/04/01 06:54:59;;;;;;;;;;;435.20;2355.20;;;;;;4899387;29;19994;-76
2022/04/01 06:57:25;;;;;;;;;;;435.40;2355.20;;;;;;4898366;29;19908;-76
2022/04/01 06:59:51;;;;;;;;;;;435.70;2355.20;;;;;;4897845;29;19908;-76
2022/04/01 07:02:17;;;;;;;;;;;435.90;2355.20;;;;;;4897958;29;19907;-88
2022/04/01 07:04:42;;;;;;;;;;;436.00;2355.20;;;;;;4897817;29;19907;-86
2022/04/01 07:07:08;;;;;;;;;;;436.00;2355.20;;;;;;4897860;29;19914;-76
2022/04/01 07:09:35;;;;;;;;;;;460.80;2380.80;;;;;;4899039;29;20268;-78
2022/04/01 07:12:01;;;;;;;;;;;436.10;2355.20;;;;;;4898894;29;19908;-86
2022/04/01 07:14:31;;;;;;;;;;;436.10;2355.20;;;;;;4897716;29;19999;-88
2022/04/01 07:17:00;;;;;;;;;;;461.00;2380.80;;;;;;4898926;29;19955;-89
2022/04/01 07:19:26;;;;;;;;;;;461.20;2380.80;;;;;;4912615;29;19983;-76
2022/04/01 07:21:51;;;;;;;;;;;461.50;2380.80;;;;;;4917547;29;19911;-88
2022/04/01 07:24:17;;;;;;;;;;;486.50;2252.80;;;;;;4917741;29;20497;-92
2022/04/01 07:26:44;;;;;;;;;;;486.90;2252.80;;;;;;4917878;29;20284;-76
2022/04/01 07:29:10;;;;;;;;;;;486.80;2124.80;;;;;;4916413;29;19914;-78
2022/04/01 07:34:32;;;;;;;;;;;486.40;2150.40;;;;;;4917758;29;19954;-76
2022/04/01 07:36:58;;;;;;;;;;;461.70;2073.60;;;;;;4916398;29;19923;-76
2022/04/01 07:39:24;;;;;;;;;;;461.60;2073.60;;;;;;4916231;29;20313;-76
2022/04/01 07:41:49;;;;;;;;;;;461.60;2073.60;;;;;;4900509;29;19907;-76
2022/04/01 07:44:15;;;;;;;;;;;461.50;2073.60;;;;;;4900422;29;19955;-77
2022/04/01 07:46:41;;;;;;;;;;;460.90;2176.00;;;;;;4900503;29;20280;-76
2022/04/01 07:49:06;;;;;;;;;;;435.80;2252.80;;;;;;4900513;29;19906;-75
2022/04/01 07:51:32;;;;;;;;;;;435.40;2252.80;;;;;;4915877;29;20295;-76
2022/04/01 07:53:58;;;;;;;;;;;435.40;2278.40;;;;;;4900412;29;19914;-75
2022/04/01 07:56:30;;;;;;;;;;;435.90;2252.80;;;;;;4916075;29;19915;-75
2022/04/01 07:58:57;;;;;;;;;;;436.00;2227.20;;;;;;4917442;29;19907;-76
2022/04/01 08:01:23;;;;;;;;;;;460.90;2227.20;;;;;;4916090;29;19914;-76
2022/04/01 08:03:48;;;;;;;;;;;461.50;2150.40;;;;;;4917286;29;19907;-75
2022/04/01 08:06:14;;;;;;;;;;;461.70;2073.60;;;;;;4917265;29;19997;-76
2022/04/01 08:08:40;;;;;;;;;;;461.10;2124.80;;;;;;4917276;29;19907;-76
2022/04/01 08:11:06;;;;;;;;;;;436.00;2176.00;;;;;;4915980;29;19970;-75
2022/04/01 08:13:33;;;;;;;;;;;436.00;2201.60;;;;;;4900345;29;20360;-76
2022/04/01 08:15:59;;;;;;;;;;;435.80;2227.20;;;;;;4921377;29;19970;-77
2022/04/01 08:18:24;;;;;;;;;;;435.50;2278.40;;;;;;4914891;29;19948;-76
2022/04/01 08:20:50;;;;;;;;;;;435.30;2304.00;;;;;;4915997;29;19911;-76
2022/04/01 08:23:16;;;;;;;;;;;435.20;2329.60;;;;;;4914574;29;19911;-75
2022/04/01 08:25:42;;;;;;;;;;;410.40;2355.20;;;;;;4914559;29;19907;-77
2022/04/01 08:28:08;;;;;;;;;;;410.30;2355.20;;;;;;4916085;29;19930;-79
2022/04/01 08:30:34;;;;;;;;;;;410.30;2355.20;;;;;;4916047;29;19911;-76
2022/04/01 08:33:00;;;;;;;;;;;410.30;2355.20;;;;;;4902596;29;20234;-77
2022/04/01 08:35:26;;;;;;;;;;;410.30;2355.20;;;;;;4919091;29;19918;-76
2022/04/01 08:37:54;;;;;;;;;;;410.30;2355.20;;;;;;4918257;29;19914;-91
2022/04/01 08:40:20;;;;;;;;;;;410.30;2355.20;;;;;;4918323;29;19959;-76
2022/04/01 08:42:46;;;;;;;;;;;410.30;2355.20;;;;;;4917799;29;19997;-81
2022/04/01 08:45:12;;;;;;;;;;;410.50;2355.20;;;;;;4919189;29;20372;-76
2022/04/01 08:47:38;;;;;;;;;;;435.20;2355.20;;;;;;4918824;29;19907;-76
2022/04/01 08:50:04;;;;;;;;;;;435.30;2355.20;;;;;;4917995;29;19968;-76
2022/04/01 08:52:30;;;;;;;;;;;435.40;2355.20;;;;;;4917486;29;19911;-77
2022/04/01 08:55:01;;;;;;;;;;;435.70;2355.20;;;;;;4918399;29;20352;-76
2022/04/01 08:57:33;;;;;;;;;;;435.70;2355.20;;;;;;4917636;29;19942;-76
2022/04/01 09:00:00;;;;;;;;;;;436.10;2355.20;;;;;;4918506;29;19907;-88
2022/04/01 09:02:26;;;;;;;;;;;436.10;2355.20;;;;;;4917601;29;19907;-76
2022/04/01 09:05:05;;;;;;;;;;;436.00;2355.20;;;;;;4918555;29;19907;-76
2022/04/01 09:07:31;;;;;;;;;;;436.00;2355.20;;;;;;4917892;29;20011;-93
2022/04/01 09:10:04;;;;;;;;;;;435.60;2355.20;;;;;;4919312;29;19951;-91
2022/04/01 09:12:29;;;;;;;;;;;435.40;2355.20;;;;;;4919711;29;19911;-92
2022/04/01 09:14:56;;;;;;;;;;;435.30;2355.20;;;;;;4919281;29;19907;-90
2022/04/01 09:17:22;;;;;;;;;;;410.50;2355.20;;;;;;4918832;29;19907;-86
2022/04/01 09:19:49;;;;;;;;;;;410.50;2355.20;;;;;;4919411;29;19926;-89
2022/04/01 09:22:15;;;;;;;;;;;410.40;2355.20;;;;;;4918290;29;19979;-87
2022/04/01 09:25:02;;;;;;;;;;;435.80;2355.20;;;;;;4917728;29;19950;-88
2022/04/01 09:27:46;;;;;;;;;;;537.90;2048.00;;;;;;4902219;29;19954;-86
2022/04/01 09:30:13;;;;;;;;;;;615.20;1638.40;;;;;;4916232;29;20415;-88
2022/04/01 09:32:51;;;;;;;8.52;7.20;;;665.60;1484.80;;;;;;4918026;29;19962;-82
2022/04/01 09:35:20;;;;;;;6.07;4.90;;;614.60;1587.20;;;;;;4917039;29;20403;-83
2022/04/01 09:38:07;;;;;;;5.40;3.70;;;563.50;1715.20;;;;;;4915931;29;20424;-83
2022/04/01 09:40:35;;;;;;;4.93;2.80;;;589.50;1612.80;;;;;;4916557;29;20445;-85
2022/04/01 09:43:01;;;;;;;4.00;1.60;;;563.40;1715.20;;;;;;4916286;29;20384;-82
2022/04/01 09:45:33;;;;;;;2.42;1.10;;;538.30;1715.20;;;;;;4917766;29;20372;-88
2022/04/01 09:48:00;;;;;;;;;;;537.80;1715.20;;;;;;4917541;29;20028;-85
2022/04/01 09:50:33;;;;;;;;;;;512.50;1766.40;;;;;;4918449;29;19960;-87
2022/04/01 09:53:12;;;;;;;;;;;512.10;1766.40;;;;;;4917356;29;19933;-88
2022/04/01 09:55:39;;;;;;;;;;;512.10;1792.00;;;;;;4919242;29;20574;-92
2022/04/01 09:58:05;;;;;;;;;;;512.40;1740.80;;;;;;4918450;29;19911;-89
2022/04/01 10:00:31;;;;;;;;;;;512.10;1792.00;;;;;;4918778;29;19907;-92
2022/04/01 10:02:58;;;;;;;;;;;487.20;1817.60;;;;;;4918477;29;20369;-92
2022/04/01 10:05:25;;;;;;;;;;;487.20;1868.80;;;;;;4918136;29;19911;-94
2022/04/01 10:07:52;;;;;;;;;;;486.90;1868.80;;;;;;4917689;29;19907;-93
2022/04/01 10:10:18;;;;;;;;;;;487.20;1868.80;;;;;;4918282;29;20445;-94
2022/04/01 10:12:47;;;;;;;;;;;486.90;1868.80;;;;;;4918555;29;19954;-89
2022/04/01 10:15:13;;;;;;;;;;;487.00;1894.40;;;;;;4918275;29;19922;-89
2022/04/01 10:17:40;;;;;;;;;;;512.00;1868.80;;;;;;4917855;29;19907;-89
2022/04/01 10:20:08;;;;;;;;;;;512.70;1817.60;;;;;;4917765;29;19926;-91
2022/04/01 10:22:36;;;;;;;;;;;512.00;1843.20;;;;;;4918214;29;19911;-92
2022/04/01 10:25:06;;;;;;;;;;;487.20;1868.80;;;;;;4918124;29;19906;-92
2022/04/01 10:27:36;;;;;;;;;;;486.60;1920.00;;;;;;4918013;29;19978;-87
2022/04/01 10:30:01;;;;;;;;;;;461.50;1996.80;;;;;;4917774;29;19907;-90
2022/04/01 10:32:35;;;;;;;;;;;461.40;2048.00;;;;;;4916555;29;20451;-90
2022/04/01 10:35:03;;;;;;;;;;;461.30;2048.00;;;;;;4916887;29;19957;-90
2022/04/01 10:37:30;;;;;;;;;;;461.50;2022.40;;;;;;4916773;29;20629;-90
2022/04/01 10:40:00;;;;;;;;;;;486.50;1971.20;;;;;;4916901;29;19907;-91
2022/04/01 10:42:32;;;;;;;;;;;461.70;1996.80;;;;;;4916527;29;20280;-89
2022/04/01 10:44:58;;;;;;;;;;;486.40;1971.20;;;;;;4916887;29;19907;-90
2022/04/01 10:51:36;;;;;;;;;;;461.40;1971.20;;;;;;4914055;29;19954;-89
2022/04/01 10:53:47;;;;;;;;;;;461.50;2022.40;;;;;;4917238;29;19918;-90
2022/04/01 10:56:25;;;;;;;;;;;461.50;2022.40;;;;;;4825638;29;20032;-90
2022/04/01 10:59:13;;;;;;;;;;;461.20;2048.00;;;;;;4825508;29;20302;-88
2022/04/01 11:01:39;;;;;;;;;;;460.80;2048.00;;;;;;4838425;29;19908;-89
2022/04/01 11:04:08;;;;;;;;;;;436.10;2022.40;;;;;;4825844;29;19935;-90
2022/04/01 11:06:49;;;;;;;;;;;436.10;2022.40;;;;;;4825473;29;20314;-89
2022/04/01 11:09:33;;;;;;;;;;;436.00;2048.00;;;;;;4840770;29;19941;-88
2022/04/01 11:12:27;;;;;;;;;;;436.00;2099.20;;;;;;4825849;29;19908;-89
2022/04/01 11:15:08;;;;;;;;;;;436.00;2048.00;;;;;;4837324;29;19912;-87
2022/04/01 11:17:34;;;;;;;;;;;435.90;2073.60;;;;;;4825412;29;19908;-89
2022/04/01 11:20:04;;;;;;;;;;;435.90;1996.80;;;;;;4840510;29;19920;-88
2022/04/01 11:22:42;;;;;;;;;;;435.70;1971.20;;;;;;4840749;29;19908;-89
2022/04/01 11:25:11;;;;;;;;;;;435.70;2022.40;;;;;;4840574;29;19908;-88
2022/04/01 11:27:42;;;;;;;;;;;436.00;2022.40;;;;;;4840992;29;20386;-93
2022/04/01 11:30:08;;;;;;;;;;;460.90;2022.40;;;;;;4841177;29;19931;-93
2022/04/01 11:32:35;;;;;;;;;;;461.00;2022.40;;;;;;4872710;29;20392;-94
2022/04/01 11:35:01;;;;;;;;;;;461.10;2022.40;;;;;;4901361;29;19963;-94
2022/04/01 11:37:27;;;;;;;;;;;461.20;1996.80;;;;;;4900565;29;19911;-93
2022/04/01 11:39:53;;;;;;;;;;;461.10;2022.40;;;;;;4900976;29;20260;-90
2022/04/01 11:42:18;;;;;;;;;;;460.90;2022.40;;;;;;4900248;29;19907;-90
2022/04/01 11:44:54;;;;;;;;;;;460.90;2022.40;;;;;;4900501;29;19913;-93
2022/04/01 11:47:32;;;;;;;;;;;436.00;1996.80;;;;;;4900533;29;19918;-91
2022/04/01 11:50:12;;;;;;;;;;;435.60;2073.60;;;;;;4899745;29;19961;-88
2022/04/01 11:52:39;;;;;;;;;;;435.40;2252.80;;;;;;4914721;29;19943;-86
2022/04/01 11:55:14;;;;;;;;;;;435.40;2227.20;;;;;;4916844;29;19917;-87
2022/04/01 11:57:40;;;;;;;;;;;435.40;2252.80;;;;;;4916838;29;19907;-87
2022/04/01 12:00:13;;;;;;;;;;;435.40;2201.60;;;;;;4916585;29;20348;-86
2022/04/01 12:02:39;;;;;;;;;;;410.50;2201.60;;;;;;4914726;29;20354;-85
2022/04/01 12:05:05;;;;;;;;;;;410.40;2201.60;;;;;;4916123;29;19962;-85
2022/04/01 12:10:19;;;;;;;;;;;410.10;2278.40;;;;;;4920678;29;19923;-86
2022/04/01 12:12:52;;;;;;;;;;;410.20;2252.80;;;;;;4903534;29;19907;-85
2022/04/01 12:15:18;;;;;;;;;;;410.30;2227.20;;;;;;4903075;29;19919;-87
2022/04/01 12:17:48;;;;;;;;;;;410.40;2227.20;;;;;;4903317;29;19934;-86
2022/04/01 12:20:14;;;;;;;;;;;435.60;2201.60;;;;;;4903414;29;19926;-85
2022/04/01 12:22:40;;;;;;;;;;;460.90;2124.80;;;;;;4903097;29;20402;-84
2022/04/01 12:25:06;;;;;;;;;;;461.20;2073.60;;;;;;4903198;29;19907;-86
2022/04/01 12:27:31;;;;;;;;;;;461.40;2048.00;;;;;;4902916;29;19914;-86
2022/04/01 12:29:58;;;;;;;;;;;486.50;2022.40;;;;;;4903400;29;19915;-86
2022/04/01 12:32:24;;;;;;;;;;;486.80;1996.80;;;;;;4903037;29;19915;-85
2022/04/01 12:34:51;;;;;;;;;;;486.60;1996.80;;;;;;4903063;29;19917;-85
2022/04/01 12:37:17;;;;;;;;;;;486.70;1920.00;;;;;;4902577;29;19915;-86
2022/04/01 12:39:45;;;;;;;;;;;486.50;1894.40;;;;;;4902211;29;19985;-87
2022/04/01 12:42:12;;;;;;;;;;;486.90;1868.80;;;;;;4913448;29;19943;-86
2022/04/01 12:44:44;;;;;;;;;;;486.90;1843.20;;;;;;4902804;29;19911;-89
2022/04/01 12:47:12;;;;;;;;;;;486.90;1868.80;;;;;;4902777;29;19907;-86
2022/04/01 12:49:42;;;;;;;;;;;487.00;1843.20;;;;;;4903164;29;19907;-89
2022/04/01 12:52:16;;;;;;;;;;;486.90;1843.20;;;;;;4903431;29;19975;-87
2022/04/01 12:54:43;;;;;;;;;;;487.00;1817.60;;;;;;4902643;29;19907;-84
2022/04/01 12:57:10;;;;;;;;;;;512.20;1792.00;;;;;;4902762;29;20427;-85
2022/04/01 12:59:40;;;;;;;;;;;512.00;1792.00;;;;;;4902009;29;19914;-86
2022/04/01 13:02:07;;;;;;;;;;;486.70;1868.80;;;;;;4914057;29;19939;-84
2022/04/01 13:04:43;;;;;;;;;;;486.70;1868.80;;;;;;4919352;29;19914;-85
2022/04/01 13:07:12;;;;;;;;;;;486.70;1817.60;;;;;;4903723;29;19935;-85
2022/04/01 13:09:53;;;;;;;;;;;486.60;1792.00;;;;;;4887771;29;19907;-80
2022/04/01 13:12:40;;;;;;;;;;;487.10;1740.80;;;;;;4900120;29;19911;-81
2022/04/01 13:15:09;;;;;;;;;;;512.00;1740.80;;;;;;4899973;29;19919;-85
2022/04/01 13:17:41;;;;;;;;;;;487.10;1689.60;;;;;;4899561;29;19918;-84
2022/04/01 13:20:08;;;;;;;;;;;487.10;1715.20;;;;;;4899984;29;19919;-82
2022/04/01 13:22:34;;;;;;;;;;;486.90;1715.20;;;;;;4884559;29;19911;-82
2022/04/01 13:25:00;;;;;;;;;;;486.60;1740.80;;;;;;4899340;29;20349;-84
2022/04/01 13:27:27;;;;;;;;;;;486.70;1766.40;;;;;;4932671;29;19958;-83
2022/04/01 13:29:54;;;;;;;;;;;461.60;1766.40;;;;;;4926128;29;19918;-81
2022/04/01 13:32:20;;;;;;;;;;;461.50;1792.00;;;;;;4918531;29;19907;-82
2022/04/01 13:34:46;;;;;;;;;;;461.60;1792.00;;;;;;4918409;29;20682;-82
2022/04/01 13:37:11;;;;;;;;;;;461.50;1766.40;;;;;;4917842;29;20485;-82
2022/04/01 13:39:37;;;;;;;;;;;461.50;1740.80;;;;;;4917238;29;20125;-82
2022/04/01 13:42:04;;;;;;;;;;;486.70;1664.00;;;;;;4917090;29;19907;-82
2022/04/01 13:44:30;;;;;;;;;;;563.90;1484.80;;;;;;4917586;29;19998;-82
2022/04/01 13:46:56;;;;;;;5.00;1.98;;;640.00;1280.00;;;;;;4916749;29;20383;-81
2022/04/01 13:49:22;;;;;;;;;;;615.20;1305.60;;;;;;4915396;29;20043;-82
2022/04/01 13:51:48;;;;;;;;;;;615.10;1280.00;;;;;;4921622;29;19915;-82
2022/04/01 13:54:14;;;;;;;;;;;614.80;1305.60;;;;;;4928798;29;20291;-85
2022/04/01 13:56:40;;;;;;;;;;;589.00;1382.40;;;;;;4927924;29;19921;-82
2022/04/01 13:59:06;;;;;;;7.90;4.28;;;563.50;1433.60;;;;;;4923300;29;19911;-82
2022/04/01 14:01:33;;;;;;;;;;;640.20;1228.80;;;;;;4908063;29;20020;-82